sensor_id;sensor_type;location;lat;lon;timestamp;pressure;altitude;pressure_sealevel;temperature;humidity
42111;BME280;27766;52.174;5.456;2023-02-19T00:01:34;101575.72;;;9.61;100.00
42111;BME280;27766;52.174;5.456;2023-02-19T00:04:17;101586.00;;;9.60;100.00
42111;BME280;27766;52.174;5.456;2023-02-19T00:06:46;101589.41;;;9.59;100.00
42111;BME280;27766;52.174;5.456;2023-02-19T00:09:15;101591.97;;;9.57;100.00
42111;BME280;27766;52.174;5.456;2023-02-19T00:11:43;101593.59;;;9.55;100.00
42111;BME280;27766;52.174;5.456;2023-02-19T00:14:17;101590.13;;;9.55;100.00
42111;BME280;27766;52.174;5.456;2023-02-19T00:16:45;101588.59;;;9.60;100.00
42111;BME280;27766;52.174;5.456;2023-02-19T00:19:15;101581.63;;;9.57;100.00
42111;BME280;27766;52.174;5.456;2023-02-19T00:21:42;101597.13;;;9.57;100.00
42111;BME280;27766;52.174;5.456;2023-02-19T00:24:11;101585.69;;;9.50;100.00
42111;BME280;27766;52.174;5.456;2023-02-19T00:26:38;101594.25;;;9.49;100.00
42111;BME280;27766;52.174;5.456;2023-02-19T00:29:06;101604.81;;;9.56;100.00
42111;BME280;27766;52.174;5.456;2023-02-19T00:31:34;101595.91;;;9.47;100.00
42111;BME280;27766;52.174;5.456;2023-02-19T00:34:03;101602.22;;;9.56;100.00
42111;BME280;27766;52.174;5.456;2023-02-19T00:36:32;101595.38;;;9.56;100.00
42111;BME280;27766;52.174;5.456;2023-02-19T00:39:03;101597.78;;;9.52;100.00
42111;BME280;27766;52.174;5.456;2023-02-19T00:41:31;101594.44;;;9.54;100.00
42111;BME280;27766;52.174;5.456;2023-02-19T00:44:00;101597.66;;;9.48;100.00
42111;BME280;27766;52.174;5.456;2023-02-19T00:46:33;101608.19;;;9.53;100.00
42111;BME280;27766;52.174;5.456;2023-02-19T00:49:03;101610.56;;;9.47;100.00
42111;BME280;27766;52.174;5.456;2023-02-19T00:51:33;101600.00;;;9.41;100.00
42111;BME280;27766;52.174;5.456;2023-02-19T00:54:00;101608.78;;;9.46;100.00
42111;BME280;27766;52.174;5.456;2023-02-19T00:56:28;101613.34;;;9.53;100.00
42111;BME280;27766;52.174;5.456;2023-02-19T00:58:55;101607.31;;;9.53;100.00
42111;BME280;27766;52.174;5.456;2023-02-19T01:01:22;101600.16;;;9.45;100.00
42111;BME280;27766;52.174;5.456;2023-02-19T01:03:51;101607.81;;;9.42;100.00
42111;BME280;27766;52.174;5.456;2023-02-19T01:06:19;101613.13;;;9.47;100.00
42111;BME280;27766;52.174;5.456;2023-02-19T01:08:47;101619.41;;;9.54;100.00
42111;BME280;27766;52.174;5.456;2023-02-19T01:11:15;101616.72;;;9.50;100.00
42111;BME280;27766;52.174;5.456;2023-02-19T01:13:43;101624.25;;;9.44;100.00
42111;BME280;27766;52.174;5.456;2023-02-19T01:18:40;101626.84;;;9.44;100.00
42111;BME280;27766;52.174;5.456;2023-02-19T01:21:12;101630.31;;;9.46;100.00
42111;BME280;27766;52.174;5.456;2023-02-19T01:23:39;101631.44;;;9.53;100.00
42111;BME280;27766;52.174;5.456;2023-02-19T01:26:08;101639.09;;;9.50;100.00
42111;BME280;27766;52.174;5.456;2023-02-19T01:28:37;101630.28;;;9.45;100.00
42111;BME280;27766;52.174;5.456;2023-02-19T01:31:06;101637.03;;;9.41;100.00
42111;BME280;27766;52.174;5.456;2023-02-19T01:33:34;101633.38;;;9.34;100.00
42111;BME280;27766;52.174;5.456;2023-02-19T01:36:02;101633.44;;;9.36;100.00
42111;BME280;27766;52.174;5.456;2023-02-19T01:38:30;101630.91;;;9.38;100.00
42111;BME280;27766;52.174;5.456;2023-02-19T01:41:00;101637.16;;;9.44;100.00
42111;BME280;27766;52.174;5.456;2023-02-19T01:43:27;101633.00;;;9.48;100.00
42111;BME280;27766;52.174;5.456;2023-02-19T01:45:55;101635.28;;;9.40;100.00
42111;BME280;27766;52.174;5.456;2023-02-19T01:48:26;101636.97;;;9.38;100.00
42111;BME280;27766;52.174;5.456;2023-02-19T01:50:59;101629.91;;;9.34;100.00
42111;BME280;27766;52.174;5.456;2023-02-19T01:53:33;101644.53;;;9.33;100.00
42111;BME280;27766;52.174;5.456;2023-02-19T01:56:03;101629.81;;;9.31;100.00
42111;BME280;27766;52.174;5.456;2023-02-19T01:58:33;101641.97;;;9.33;100.00
42111;BME280;27766;52.174;5.456;2023-02-19T02:01:03;101639.91;;;9.25;100.00
42111;BME280;27766;52.174;5.456;2023-02-19T02:03:33;101633.31;;;9.33;100.00
42111;BME280;27766;52.174;5.456;2023-02-19T02:06:06;101640.78;;;9.25;100.00
42111;BME280;27766;52.174;5.456;2023-02-19T02:08:34;101642.38;;;9.22;100.00
42111;BME280;27766;52.174;5.456;2023-02-19T02:11:21;101642.38;;;9.22;100.00
42111;BME280;27766;52.174;5.456;2023-02-19T02:13:49;101639.84;;;9.23;100.00
42111;BME280;27766;52.174;5.456;2023-02-19T02:24:09;101646.75;;;9.23;100.00
42111;BME280;27766;52.174;5.456;2023-02-19T02:32:10;101648.38;;;9.21;100.00
42111;BME280;27766;52.174;5.456;2023-02-19T02:34:47;101647.91;;;9.31;100.00
42111;BME280;27766;52.174;5.456;2023-02-19T02:37:17;101646.94;;;9.29;100.00
42111;BME280;27766;52.174;5.456;2023-02-19T02:39:45;101649.91;;;9.15;100.00
42111;BME280;27766;52.174;5.456;2023-02-19T02:42:13;101656.81;;;9.16;100.00
42111;BME280;27766;52.174;5.456;2023-02-19T02:44:56;101661.13;;;9.16;100.00
42111;BME280;27766;52.174;5.456;2023-02-19T02:47:59;101660.91;;;9.10;100.00
42111;BME280;27766;52.174;5.456;2023-02-19T02:51:10;101664.34;;;9.10;100.00
42111;BME280;27766;52.174;5.456;2023-02-19T02:53:59;101660.19;;;9.14;100.00
42111;BME280;27766;52.174;5.456;2023-02-19T02:56:47;101659.53;;;9.19;100.00
42111;BME280;27766;52.174;5.456;2023-02-19T02:59:18;101658.59;;;9.17;100.00
42111;BME280;27766;52.174;5.456;2023-02-19T03:01:51;101663.88;;;9.21;100.00
42111;BME280;27766;52.174;5.456;2023-02-19T03:05:01;101671.44;;;9.16;100.00
42111;BME280;27766;52.174;5.456;2023-02-19T03:07:57;101666.34;;;9.17;100.00
42111;BME280;27766;52.174;5.456;2023-02-19T03:10:31;101660.06;;;9.11;100.00
42111;BME280;27766;52.174;5.456;2023-02-19T03:12:59;101673.03;;;9.12;100.00
42111;BME280;27766;52.174;5.456;2023-02-19T03:15:50;101684.91;;;9.07;100.00
42111;BME280;27766;52.174;5.456;2023-02-19T03:18:40;101668.66;;;9.10;100.00
42111;BME280;27766;52.174;5.456;2023-02-19T03:21:27;101677.59;;;9.19;100.00
42111;BME280;27766;52.174;5.456;2023-02-19T03:23:55;101672.28;;;9.15;100.00
42111;BME280;27766;52.174;5.456;2023-02-19T03:26:42;101679.03;;;9.11;100.00
42111;BME280;27766;52.174;5.456;2023-02-19T03:29:12;101678.91;;;9.08;100.00
42111;BME280;27766;52.174;5.456;2023-02-19T03:31:57;101677.59;;;9.19;100.00
42111;BME280;27766;52.174;5.456;2023-02-19T03:34:40;101683.38;;;9.12;100.00
42111;BME280;27766;52.174;5.456;2023-02-19T03:37:17;101691.13;;;9.12;100.00
42111;BME280;27766;52.174;5.456;2023-02-19T03:39:48;101697.81;;;9.07;100.00
42111;BME280;27766;52.174;5.456;2023-02-19T03:50:35;101694.53;;;9.11;100.00
42111;BME280;27766;52.174;5.456;2023-02-19T03:58:19;101704.84;;;9.11;100.00
42111;BME280;27766;52.174;5.456;2023-02-19T04:01:01;101718.41;;;9.06;100.00
42111;BME280;27766;52.174;5.456;2023-02-19T04:03:40;101721.88;;;9.06;100.00
42111;BME280;27766;52.174;5.456;2023-02-19T04:06:16;101723.91;;;8.92;100.00
42111;BME280;27766;52.174;5.456;2023-02-19T04:08:48;101714.66;;;8.97;100.00
42111;BME280;27766;52.174;5.456;2023-02-19T04:11:17;101720.72;;;8.98;100.00
42111;BME280;27766;52.174;5.456;2023-02-19T04:13:51;101730.31;;;9.02;100.00
42111;BME280;27766;52.174;5.456;2023-02-19T04:16:25;101719.72;;;8.94;100.00
42111;BME280;27766;52.174;5.456;2023-02-19T04:18:57;101740.53;;;8.99;100.00
42111;BME280;27766;52.174;5.456;2023-02-19T04:21:27;101736.38;;;9.02;100.00
42111;BME280;27766;52.174;5.456;2023-02-19T04:23:58;101735.44;;;9.00;100.00
42111;BME280;27766;52.174;5.456;2023-02-19T04:26:29;101747.34;;;8.97;100.00
42111;BME280;27766;52.174;5.456;2023-02-19T04:28:58;101756.66;;;8.93;100.00
42111;BME280;27766;52.174;5.456;2023-02-19T04:31:27;101750.50;;;8.90;100.00
42111;BME280;27766;52.174;5.456;2023-02-19T04:33:55;101756.72;;;8.95;100.00
42111;BME280;27766;52.174;5.456;2023-02-19T04:36:23;101760.78;;;8.88;100.00
42111;BME280;27766;52.174;5.456;2023-02-19T04:38:50;101760.84;;;8.90;100.00
42111;BME280;27766;52.174;5.456;2023-02-19T04:41:17;101766.69;;;8.85;100.00
42111;BME280;27766;52.174;5.456;2023-02-19T04:43:44;101772.75;;;8.86;100.00
42111;BME280;27766;52.174;5.456;2023-02-19T04:46:11;101772.56;;;8.81;100.00
42111;BME280;27766;52.174;5.456;2023-02-19T04:48:38;101787.84;;;8.98;100.00
42111;BME280;27766;52.174;5.456;2023-02-19T04:51:06;101786.13;;;8.98;100.00
42111;BME280;27766;52.174;5.456;2023-02-19T04:53:34;101789.28;;;8.91;100.00
42111;BME280;27766;52.174;5.456;2023-02-19T04:56:13;101795.41;;;8.93;100.00
42111;BME280;27766;52.174;5.456;2023-02-19T04:58:41;101799.63;;;8.91;100.00
42111;BME280;27766;52.174;5.456;2023-02-19T05:01:09;101811.09;;;8.98;100.00
42111;BME280;27766;52.174;5.456;2023-02-19T05:03:37;101786.50;;;8.86;100.00
42111;BME280;27766;52.174;5.456;2023-02-19T05:06:07;101786.97;;;8.76;100.00
42111;BME280;27766;52.174;5.456;2023-02-19T05:08:35;101809.13;;;8.92;100.00
42111;BME280;27766;52.174;5.456;2023-02-19T05:11:04;101813.53;;;8.95;100.00
42111;BME280;27766;52.174;5.456;2023-02-19T05:13:31;101809.84;;;8.88;100.00
42111;BME280;27766;52.174;5.456;2023-02-19T05:16:01;101816.00;;;8.92;100.00
42111;BME280;27766;52.174;5.456;2023-02-19T05:18:29;101815.72;;;8.85;100.00
42111;BME280;27766;52.174;5.456;2023-02-19T05:20:59;101823.66;;;8.90;100.00
42111;BME280;27766;52.174;5.456;2023-02-19T05:23:27;101825.63;;;8.96;100.00
42111;BME280;27766;52.174;5.456;2023-02-19T05:25:54;101827.00;;;8.87;100.00
42111;BME280;27766;52.174;5.456;2023-02-19T05:28:21;101830.31;;;8.83;100.00
42111;BME280;27766;52.174;5.456;2023-02-19T05:30:55;101843.41;;;8.88;100.00
42111;BME280;27766;52.174;5.456;2023-02-19T05:33:25;101835.56;;;8.86;100.00
42111;BME280;27766;52.174;5.456;2023-02-19T05:35:57;101833.75;;;8.84;100.00
42111;BME280;27766;52.174;5.456;2023-02-19T05:38:24;101835.28;;;8.79;100.00
42111;BME280;27766;52.174;5.456;2023-02-19T05:40:51;101844.03;;;8.82;100.00
42111;BME280;27766;52.174;5.456;2023-02-19T05:43:18;101836.28;;;8.82;100.00
42111;BME280;27766;52.174;5.456;2023-02-19T05:45:45;101843.06;;;8.80;100.00
42111;BME280;27766;52.174;5.456;2023-02-19T05:48:12;101833.56;;;8.79;100.00
42111;BME280;27766;52.174;5.456;2023-02-19T05:50:40;101841.31;;;8.79;100.00
42111;BME280;27766;52.174;5.456;2023-02-19T05:53:08;101844.13;;;8.85;100.00
42111;BME280;27766;52.174;5.456;2023-02-19T05:55:35;101843.81;;;8.78;100.00
42111;BME280;27766;52.174;5.456;2023-02-19T05:58:02;101834.00;;;8.69;100.00
42111;BME280;27766;52.174;5.456;2023-02-19T06:00:31;101852.59;;;8.81;100.00
42111;BME280;27766;52.174;5.456;2023-02-19T06:02:59;101845.00;;;8.65;100.00
42111;BME280;27766;52.174;5.456;2023-02-19T06:05:26;101853.75;;;8.68;100.00
42111;BME280;27766;52.174;5.456;2023-02-19T06:07:54;101855.72;;;8.74;100.00
42111;BME280;27766;52.174;5.456;2023-02-19T06:10:22;101857.50;;;8.75;100.00
42111;BME280;27766;52.174;5.456;2023-02-19T06:12:53;101867.88;;;8.77;100.00
42111;BME280;27766;52.174;5.456;2023-02-19T06:15:21;101870.41;;;8.75;100.00
42111;BME280;27766;52.174;5.456;2023-02-19T06:17:48;101870.50;;;8.78;100.00
42111;BME280;27766;52.174;5.456;2023-02-19T06:20:15;101879.25;;;8.82;100.00
42111;BME280;27766;52.174;5.456;2023-02-19T06:22:43;101883.97;;;8.71;100.00
42111;BME280;27766;52.174;5.456;2023-02-19T06:25:10;101884.78;;;8.70;100.00
42111;BME280;27766;52.174;5.456;2023-02-19T06:27:40;101895.31;;;8.75;100.00
42111;BME280;27766;52.174;5.456;2023-02-19T06:30:07;101899.47;;;8.71;100.00
42111;BME280;27766;52.174;5.456;2023-02-19T06:32:34;101907.41;;;8.76;100.00
42111;BME280;27766;52.174;5.456;2023-02-19T06:35:02;101900.28;;;8.70;100.00
42111;BME280;27766;52.174;5.456;2023-02-19T06:37:30;101894.75;;;8.61;100.00
42111;BME280;27766;52.174;5.456;2023-02-19T06:39:57;101908.16;;;8.73;100.00
42111;BME280;27766;52.174;5.456;2023-02-19T06:42:24;101905.59;;;8.73;100.00
42111;BME280;27766;52.174;5.456;2023-02-19T06:44:51;101916.25;;;8.81;100.00
42111;BME280;27766;52.174;5.456;2023-02-19T06:47:18;101909.94;;;8.74;100.00
42111;BME280;27766;52.174;5.456;2023-02-19T06:49:45;101921.00;;;8.71;100.00
42111;BME280;27766;52.174;5.456;2023-02-19T06:52:12;101924.22;;;8.66;100.00
42111;BME280;27766;52.174;5.456;2023-02-19T06:54:39;101921.78;;;8.69;100.00
42111;BME280;27766;52.174;5.456;2023-02-19T06:57:06;101919.31;;;8.72;100.00
42111;BME280;27766;52.174;5.456;2023-02-19T06:59:34;101927.75;;;8.68;100.00
42111;BME280;27766;52.174;5.456;2023-02-19T07:02:01;101932.16;;;8.70;100.00
42111;BME280;27766;52.174;5.456;2023-02-19T07:04:28;101941.53;;;8.68;100.00
42111;BME280;27766;52.174;5.456;2023-02-19T07:06:55;101944.16;;;8.70;100.00
42111;BME280;27766;52.174;5.456;2023-02-19T07:09:22;101946.81;;;8.71;100.00
42111;BME280;27766;52.174;5.456;2023-02-19T07:11:51;101952.03;;;8.73;100.00
42111;BME280;27766;52.174;5.456;2023-02-19T07:14:18;101957.91;;;8.69;100.00
42111;BME280;27766;52.174;5.456;2023-02-19T07:16:46;101953.81;;;8.74;100.00
42111;BME280;27766;52.174;5.456;2023-02-19T07:19:14;101972.09;;;8.79;100.00
42111;BME280;27766;52.174;5.456;2023-02-19T07:21:41;101973.03;;;8.81;100.00
42111;BME280;27766;52.174;5.456;2023-02-19T07:24:09;101983.16;;;8.76;100.00
42111;BME280;27766;52.174;5.456;2023-02-19T07:26:36;101979.91;;;8.61;100.00
42111;BME280;27766;52.174;5.456;2023-02-19T07:29:03;101987.31;;;8.73;100.00
42111;BME280;27766;52.174;5.456;2023-02-19T07:31:30;101991.03;;;8.79;100.00
42111;BME280;27766;52.174;5.456;2023-02-19T07:33:58;101978.94;;;8.78;100.00
42111;BME280;27766;52.174;5.456;2023-02-19T07:36:25;101990.47;;;8.86;100.00
42111;BME280;27766;52.174;5.456;2023-02-19T07:38:57;102001.63;;;8.85;100.00
42111;BME280;27766;52.174;5.456;2023-02-19T07:41:25;102005.31;;;8.91;100.00
42111;BME280;27766;52.174;5.456;2023-02-19T07:43:56;102002.94;;;8.95;100.00
42111;BME280;27766;52.174;5.456;2023-02-19T07:46:24;101992.50;;;8.94;100.00
42111;BME280;27766;52.174;5.456;2023-02-19T07:48:51;101986.28;;;8.89;100.00
42111;BME280;27766;52.174;5.456;2023-02-19T07:51:19;102012.63;;;9.01;100.00
42111;BME280;27766;52.174;5.456;2023-02-19T07:53:48;102015.63;;;8.91;100.00
42111;BME280;27766;52.174;5.456;2023-02-19T07:56:19;102018.97;;;8.88;100.00
42111;BME280;27766;52.174;5.456;2023-02-19T07:58:46;102011.81;;;8.82;100.00
42111;BME280;27766;52.174;5.456;2023-02-19T08:01:16;102012.84;;;8.86;100.00
42111;BME280;27766;52.174;5.456;2023-02-19T08:03:44;102021.47;;;8.86;100.00
42111;BME280;27766;52.174;5.456;2023-02-19T08:06:11;102016.94;;;8.81;100.00
42111;BME280;27766;52.174;5.456;2023-02-19T08:08:38;102030.72;;;8.81;100.00
42111;BME280;27766;52.174;5.456;2023-02-19T08:11:06;102032.59;;;8.85;100.00
42111;BME280;27766;52.174;5.456;2023-02-19T08:13:52;102036.69;;;8.80;100.00
42111;BME280;27766;52.174;5.456;2023-02-19T08:16:21;102039.75;;;8.91;100.00
42111;BME280;27766;52.174;5.456;2023-02-19T08:19:08;102043.06;;;8.89;100.00
42111;BME280;27766;52.174;5.456;2023-02-19T08:21:35;102051.38;;;8.81;100.00
42111;BME280;27766;52.174;5.456;2023-02-19T08:24:02;102054.63;;;8.77;100.00
42111;BME280;27766;52.174;5.456;2023-02-19T08:26:31;102064.97;;;8.77;100.00
42111;BME280;27766;52.174;5.456;2023-02-19T08:28:59;102062.22;;;8.74;100.00
42111;BME280;27766;52.174;5.456;2023-02-19T08:31:26;102068.06;;;8.70;100.00
42111;BME280;27766;52.174;5.456;2023-02-19T08:33:54;102064.44;;;8.66;100.00
42111;BME280;27766;52.174;5.456;2023-02-19T08:36:21;102075.13;;;8.74;100.00
42111;BME280;27766;52.174;5.456;2023-02-19T08:38:48;102081.06;;;8.71;100.00
42111;BME280;27766;52.174;5.456;2023-02-19T08:41:15;102078.25;;;8.67;100.00
42111;BME280;27766;52.174;5.456;2023-02-19T08:43:43;102087.63;;;8.65;100.00
42111;BME280;27766;52.174;5.456;2023-02-19T08:46:10;102080.16;;;8.71;100.00
42111;BME280;27766;52.174;5.456;2023-02-19T08:48:39;102091.28;;;8.70;100.00
42111;BME280;27766;52.174;5.456;2023-02-19T08:51:08;102074.06;;;8.69;100.00
42111;BME280;27766;52.174;5.456;2023-02-19T08:53:38;102086.09;;;8.88;100.00
42111;BME280;27766;52.174;5.456;2023-02-19T08:56:09;102078.91;;;8.81;100.00
42111;BME280;27766;52.174;5.456;2023-02-19T08:58:37;102083.84;;;8.76;100.00
42111;BME280;27766;52.174;5.456;2023-02-19T09:01:10;102094.56;;;8.66;100.00
42111;BME280;27766;52.174;5.456;2023-02-19T09:03:38;102083.09;;;8.79;100.00
42111;BME280;27766;52.174;5.456;2023-02-19T09:06:05;102091.97;;;8.85;100.00
42111;BME280;27766;52.174;5.456;2023-02-19T09:08:32;102085.13;;;8.86;100.00
42111;BME280;27766;52.174;5.456;2023-02-19T09:11:01;102091.91;;;8.84;100.00
42111;BME280;27766;52.174;5.456;2023-02-19T09:13:29;102101.50;;;8.86;100.00
42111;BME280;27766;52.174;5.456;2023-02-19T09:15:56;102100.75;;;8.89;100.00
42111;BME280;27766;52.174;5.456;2023-02-19T09:18:25;102121.13;;;8.83;100.00
42111;BME280;27766;52.174;5.456;2023-02-19T09:20:52;102108.84;;;8.77;100.00
42111;BME280;27766;52.174;5.456;2023-02-19T09:23:21;102101.91;;;8.76;100.00
42111;BME280;27766;52.174;5.456;2023-02-19T09:25:55;102111.94;;;8.70;100.00
42111;BME280;27766;52.174;5.456;2023-02-19T09:28:22;102130.84;;;8.69;100.00
42111;BME280;27766;52.174;5.456;2023-02-19T09:30:50;102135.31;;;8.73;100.00
42111;BME280;27766;52.174;5.456;2023-02-19T09:33:17;102143.34;;;8.79;100.00
42111;BME280;27766;52.174;5.456;2023-02-19T09:35:44;102148.78;;;8.85;100.00
42111;BME280;27766;52.174;5.456;2023-02-19T09:38:11;102164.91;;;8.80;100.00
42111;BME280;27766;52.174;5.456;2023-02-19T09:40:38;102162.97;;;8.76;100.00
42111;BME280;27766;52.174;5.456;2023-02-19T09:43:14;102177.66;;;8.77;100.00
42111;BME280;27766;52.174;5.456;2023-02-19T09:45:43;102182.81;;;8.77;100.00
42111;BME280;27766;52.174;5.456;2023-02-19T09:48:11;102191.03;;;8.68;100.00
42111;BME280;27766;52.174;5.456;2023-02-19T09:50:42;102191.91;;;8.50;100.00
42111;BME280;27766;52.174;5.456;2023-02-19T09:53:16;102201.97;;;8.46;100.00
42111;BME280;27766;52.174;5.456;2023-02-19T09:55:46;102215.31;;;8.37;100.00
42111;BME280;27766;52.174;5.456;2023-02-19T09:58:21;102205.97;;;8.39;100.00
42111;BME280;27766;52.174;5.456;2023-02-19T10:00:53;102212.50;;;8.32;100.00
42111;BME280;27766;52.174;5.456;2023-02-19T10:03:27;102217.72;;;8.34;100.00
42111;BME280;27766;52.174;5.456;2023-02-19T10:06:04;102209.03;;;8.32;100.00
42111;BME280;27766;52.174;5.456;2023-02-19T10:08:33;102228.34;;;8.40;100.00
42111;BME280;27766;52.174;5.456;2023-02-19T10:11:02;102228.84;;;8.33;100.00
42111;BME280;27766;52.174;5.456;2023-02-19T10:13:36;102243.13;;;8.43;100.00
42111;BME280;27766;52.174;5.456;2023-02-19T10:16:11;102251.91;;;8.46;100.00
42111;BME280;27766;52.174;5.456;2023-02-19T10:18:43;102252.53;;;8.42;100.00
42111;BME280;27766;52.174;5.456;2023-02-19T10:21:21;102261.09;;;8.41;100.00
42111;BME280;27766;52.174;5.456;2023-02-19T10:24:12;102259.41;;;8.42;100.00
42111;BME280;27766;52.174;5.456;2023-02-19T10:26:41;102278.59;;;8.47;100.00
42111;BME280;27766;52.174;5.456;2023-02-19T10:29:10;102282.22;;;8.50;100.00
42111;BME280;27766;52.174;5.456;2023-02-19T10:31:37;102281.34;;;8.50;100.00
42111;BME280;27766;52.174;5.456;2023-02-19T10:34:16;102278.84;;;8.51;100.00
42111;BME280;27766;52.174;5.456;2023-02-19T10:36:46;102284.88;;;8.52;100.00
42111;BME280;27766;52.174;5.456;2023-02-19T10:39:42;102285.19;;;8.58;100.00
42111;BME280;27766;52.174;5.456;2023-02-19T10:42:18;102277.75;;;8.64;100.00
42111;BME280;27766;52.174;5.456;2023-02-19T10:44:50;102287.84;;;8.60;100.00
42111;BME280;27766;52.174;5.456;2023-02-19T10:47:21;102290.50;;;8.61;100.00
42111;BME280;27766;52.174;5.456;2023-02-19T10:49:51;102291.41;;;8.45;100.00
42111;BME280;27766;52.174;5.456;2023-02-19T10:52:27;102291.00;;;8.37;100.00
42111;BME280;27766;52.174;5.456;2023-02-19T10:55:13;102284.81;;;8.34;100.00
42111;BME280;27766;52.174;5.456;2023-02-19T10:57:41;102285.84;;;8.37;100.00
42111;BME280;27766;52.174;5.456;2023-02-19T11:02:42;102285.78;;;8.36;100.00
42111;BME280;27766;52.174;5.456;2023-02-19T11:07:51;102272.63;;;8.48;100.00
42111;BME280;27766;52.174;5.456;2023-02-19T11:10:30;102269.38;;;8.52;100.00
42111;BME280;27766;52.174;5.456;2023-02-19T11:13:02;102282.09;;;8.31;100.00
42111;BME280;27766;52.174;5.456;2023-02-19T11:15:32;102287.59;;;8.20;100.00
42111;BME280;27766;52.174;5.456;2023-02-19T11:21:17;102297.22;;;8.24;100.00
42111;BME280;27766;52.174;5.456;2023-02-19T11:23:48;102291.44;;;8.29;100.00
42111;BME280;27766;52.174;5.456;2023-02-19T11:26:20;102301.75;;;8.29;100.00
42111;BME280;27766;52.174;5.456;2023-02-19T11:28:59;102300.41;;;8.19;100.00
42111;BME280;27766;52.174;5.456;2023-02-19T11:31:31;102300.97;;;8.13;100.00
42111;BME280;27766;52.174;5.456;2023-02-19T11:36:34;102300.66;;;8.07;100.00
42111;BME280;27766;52.174;5.456;2023-02-19T11:44:46;102317.13;;;7.92;100.00
42111;BME280;27766;52.174;5.456;2023-02-19T11:47:38;102328.47;;;7.80;100.00
42111;BME280;27766;52.174;5.456;2023-02-19T11:50:26;102327.56;;;7.79;100.00
42111;BME280;27766;52.174;5.456;2023-02-19T11:53:27;102320.22;;;7.70;100.00
42111;BME280;27766;52.174;5.456;2023-02-19T12:12:37;102319.44;;;7.40;100.00
42111;BME280;27766;52.174;5.456;2023-02-19T12:15:42;102323.00;;;7.42;100.00
42111;BME280;27766;52.174;5.456;2023-02-19T12:34:58;102332.22;;;7.53;100.00
42111;BME280;27766;52.174;5.456;2023-02-19T12:37:50;102344.84;;;7.49;100.00
42111;BME280;27766;52.174;5.456;2023-02-19T12:43:12;102354.56;;;7.38;100.00
42111;BME280;27766;52.174;5.456;2023-02-19T12:46:02;102346.25;;;7.43;100.00
42111;BME280;27766;52.174;5.456;2023-02-19T12:48:47;102355.41;;;7.53;100.00
42111;BME280;27766;52.174;5.456;2023-02-19T12:53:51;102366.50;;;7.52;100.00
42111;BME280;27766;52.174;5.456;2023-02-19T12:58:58;102370.22;;;7.57;100.00
42111;BME280;27766;52.174;5.456;2023-02-19T13:01:32;102379.91;;;7.62;100.00
42111;BME280;27766;52.174;5.456;2023-02-19T13:04:10;102380.78;;;7.62;100.00
42111;BME280;27766;52.174;5.456;2023-02-19T13:06:43;102378.38;;;7.65;100.00
42111;BME280;27766;52.174;5.456;2023-02-19T13:09:33;102382.31;;;7.58;100.00
42111;BME280;27766;52.174;5.456;2023-02-19T13:12:07;102391.28;;;7.50;100.00
42111;BME280;27766;52.174;5.456;2023-02-19T13:14:59;102403.50;;;7.38;100.00
42111;BME280;27766;52.174;5.456;2023-02-19T13:17:46;102400.94;;;7.38;100.00
42111;BME280;27766;52.174;5.456;2023-02-19T13:20:40;102416.59;;;7.57;100.00
42111;BME280;27766;52.174;5.456;2023-02-19T13:29:12;102424.97;;;7.53;100.00
42111;BME280;27766;52.174;5.456;2023-02-19T13:31:53;102423.34;;;7.55;100.00
42111;BME280;27766;52.174;5.456;2023-02-19T13:34:40;102413.88;;;7.54;100.00
42111;BME280;27766;52.174;5.456;2023-02-19T13:37:10;102422.56;;;7.56;100.00
42111;BME280;27766;52.174;5.456;2023-02-19T13:39:47;102425.09;;;7.71;100.00
42111;BME280;27766;52.174;5.456;2023-02-19T13:42:25;102421.72;;;7.72;100.00
42111;BME280;27766;52.174;5.456;2023-02-19T13:44:54;102424.31;;;7.72;100.00
42111;BME280;27766;52.174;5.456;2023-02-19T13:47:46;102433.63;;;7.70;100.00
42111;BME280;27766;52.174;5.456;2023-02-19T13:50:21;102437.78;;;7.83;100.00
42111;BME280;27766;52.174;5.456;2023-02-19T13:52:53;102434.00;;;7.93;100.00
42111;BME280;27766;52.174;5.456;2023-02-19T14:01:06;102442.84;;;7.82;100.00
42111;BME280;27766;52.174;5.456;2023-02-19T14:06:05;102443.22;;;7.73;100.00
42111;BME280;27766;52.174;5.456;2023-02-19T14:16:57;102441.03;;;8.12;100.00
42111;BME280;27766;52.174;5.456;2023-02-19T14:19:50;102445.22;;;8.10;100.00
42111;BME280;27766;52.174;5.456;2023-02-19T14:25:29;102440.44;;;7.85;100.00
42111;BME280;27766;52.174;5.456;2023-02-19T14:28:00;102443.56;;;7.79;100.00
42111;BME280;27766;52.174;5.456;2023-02-19T14:30:31;102426.50;;;7.81;100.00
42111;BME280;27766;52.174;5.456;2023-02-19T14:33:02;102426.66;;;7.84;100.00
42111;BME280;27766;52.174;5.456;2023-02-19T14:35:40;102429.72;;;7.77;100.00
42111;BME280;27766;52.174;5.456;2023-02-19T14:38:24;102425.03;;;7.86;100.00
42111;BME280;27766;52.174;5.456;2023-02-19T14:40:54;102414.03;;;7.89;100.00
42111;BME280;27766;52.174;5.456;2023-02-19T14:43:23;102411.06;;;7.98;100.00
42111;BME280;27766;52.174;5.456;2023-02-19T14:46:05;102398.47;;;8.04;100.00
42111;BME280;27766;52.174;5.456;2023-02-19T14:48:40;102391.72;;;8.06;100.00
42111;BME280;27766;52.174;5.456;2023-02-19T14:51:15;102405.25;;;8.02;100.00
42111;BME280;27766;52.174;5.456;2023-02-19T14:53:47;102403.63;;;7.87;100.00
42111;BME280;27766;52.174;5.456;2023-02-19T14:56:25;102402.09;;;7.91;100.00
42111;BME280;27766;52.174;5.456;2023-02-19T14:59:29;102392.34;;;7.85;100.00
42111;BME280;27766;52.174;5.456;2023-02-19T15:02:01;102382.94;;;8.02;100.00
42111;BME280;27766;52.174;5.456;2023-02-19T15:04:33;102383.50;;;8.13;100.00
42111;BME280;27766;52.174;5.456;2023-02-19T15:07:02;102390.25;;;8.11;100.00
42111;BME280;27766;52.174;5.456;2023-02-19T15:09:36;102383.19;;;8.07;100.00